createdAt,value
2023-01-30T00:02:07.339Z,14.00
2023-01-30T00:04:35.876Z,14.45
2023-01-30T00:07:07.920Z,13.20
2023-01-30T00:09:36.318Z,13.45
2023-01-30T00:12:05.231Z,14.93
2023-01-30T00:14:33.583Z,13.20
2023-01-30T00:17:01.936Z,13.60
2023-01-30T00:19:30.285Z,13.20
2023-01-30T00:21:58.734Z,12.63
2023-01-30T00:24:28.615Z,12.93
2023-01-30T00:26:57.165Z,12.43
2023-01-30T00:29:25.806Z,14.00
2023-01-30T00:31:56.164Z,14.52
2023-01-30T00:34:25.909Z,13.85
2023-01-30T00:39:44.111Z,12.50
2023-01-30T00:42:29.813Z,13.77
2023-01-30T00:45:16.113Z,14.15
2023-01-30T00:47:46.201Z,13.07
2023-01-30T00:50:14.585Z,13.85
2023-01-30T00:52:45.037Z,13.85
2023-01-30T00:55:16.423Z,13.23
2023-01-30T00:57:46.179Z,14.15
2023-01-30T01:00:17.753Z,14.40
2023-01-30T01:02:46.125Z,13.32
2023-01-30T01:05:14.630Z,13.38
2023-01-30T01:07:43.095Z,13.38
2023-01-30T01:10:16.296Z,13.40
2023-01-30T01:12:48.612Z,13.20
2023-01-30T01:15:17.510Z,13.50
2023-01-30T01:17:46.104Z,13.90
2023-01-30T01:20:14.905Z,14.55
2023-01-30T01:22:43.394Z,14.45
2023-01-30T01:25:12.848Z,14.25
2023-01-30T01:27:41.454Z,14.25
2023-01-30T01:30:14.942Z,14.20
2023-01-30T01:32:45.425Z,13.02
2023-01-30T01:35:13.818Z,14.75
2023-01-30T01:37:47.114Z,14.40
2023-01-30T01:40:39.241Z,13.20
2023-01-30T01:43:19.815Z,13.15
2023-01-30T01:45:54.308Z,15.32
2023-01-30T01:48:28.762Z,14.55
2023-01-30T01:51:01.949Z,12.90
2023-01-30T01:53:35.138Z,14.40
2023-01-30T01:56:05.184Z,14.50
2023-01-30T01:58:39.309Z,13.52
2023-01-30T02:01:11.851Z,13.70
2023-01-30T02:03:46.463Z,13.90
2023-01-30T02:06:18.387Z,13.27
2023-01-30T02:08:51.303Z,12.82
2023-01-30T02:11:30.238Z,12.87
2023-01-30T02:14:01.402Z,14.68
2023-01-30T02:16:31.297Z,13.20
2023-01-30T02:18:59.877Z,13.13
2023-01-30T02:22:03.881Z,14.43
2023-01-30T02:25:11.420Z,14.10
2023-01-30T02:28:13.361Z,13.82
2023-01-30T02:31:15.717Z,13.82
2023-01-30T02:33:56.808Z,14.02
2023-01-30T02:36:32.697Z,13.20
2023-01-30T02:39:09.583Z,14.25
2023-01-30T02:41:46.214Z,14.73
2023-01-30T02:44:22.998Z,13.15
2023-01-30T02:46:57.572Z,13.35
2023-01-30T02:49:32.831Z,13.65
2023-01-30T02:52:03.344Z,13.55
2023-01-30T02:54:33.492Z,15.02
2023-01-30T02:57:02.219Z,14.25
2023-01-30T02:59:38.400Z,14.40
2023-01-30T03:02:25.760Z,14.85
2023-01-30T03:05:09.309Z,13.68
2023-01-30T03:07:46.974Z,14.45
2023-01-30T03:10:25.597Z,13.30
2023-01-30T03:13:04.604Z,12.88
2023-01-30T03:15:36.569Z,13.75
2023-01-30T03:18:06.751Z,13.15
2023-01-30T03:20:38.312Z,12.60
2023-01-30T03:23:07.710Z,12.55
2023-01-30T03:25:39.322Z,13.65
2023-01-30T03:28:09.260Z,12.82
2023-01-30T03:30:38.528Z,14.60
2023-01-30T03:33:14.755Z,14.48
2023-01-30T03:35:48.580Z,14.63
2023-01-30T03:38:18.327Z,13.15
2023-01-30T03:40:53.277Z,13.52
2023-01-30T03:43:22.057Z,15.35
2023-01-30T03:45:50.529Z,13.35
2023-01-30T03:48:22.562Z,14.27
2023-01-30T03:50:50.859Z,13.15
2023-01-30T03:53:21.897Z,14.45
2023-01-30T03:55:50.690Z,13.60
2023-01-30T03:58:24.195Z,14.50
2023-01-30T04:00:52.797Z,13.98
2023-01-30T04:03:22.600Z,13.38
2023-01-30T04:05:52.356Z,14.38
2023-01-30T04:08:22.015Z,12.88
2023-01-30T04:10:50.410Z,14.35
2023-01-30T04:13:19.306Z,13.30
2023-01-30T04:15:48.359Z,13.98
2023-01-30T04:18:38.437Z,14.27
2023-01-30T04:21:22.337Z,10.20
2023-01-30T04:23:52.512Z,13.63
2023-01-30T04:26:21.001Z,14.43
2023-01-30T04:28:49.687Z,14.52
2023-01-30T04:31:18.339Z,14.27
2023-01-30T04:34:08.451Z,13.68
2023-01-30T04:36:37.735Z,14.15
2023-01-30T04:39:06.238Z,14.30
2023-01-30T04:41:35.527Z,14.60
2023-01-30T04:44:04.640Z,13.48
2023-01-30T04:46:55.737Z,12.38
2023-01-30T04:49:25.551Z,15.20
2023-01-30T04:51:55.340Z,14.38
2023-01-30T04:54:24.160Z,14.43
2023-01-30T04:56:52.560Z,14.48
2023-01-30T04:59:21.103Z,13.18
2023-01-30T05:01:53.407Z,15.05
2023-01-30T05:04:22.052Z,13.77
2023-01-30T05:06:51.754Z,15.35
2023-01-30T05:09:20.137Z,14.43
2023-01-30T05:11:50.925Z,14.57
2023-01-30T05:14:19.272Z,14.30
2023-01-30T05:16:50.899Z,13.07
2023-01-30T05:19:19.407Z,13.02
2023-01-30T05:21:47.752Z,13.60
2023-01-30T05:24:17.469Z,14.73
2023-01-30T05:26:45.838Z,14.10
2023-01-30T05:29:16.461Z,13.52
2023-01-30T05:31:44.982Z,13.68
2023-01-30T05:34:16.112Z,11.55
2023-01-30T05:36:44.488Z,13.52
2023-01-30T05:39:12.849Z,14.20
2023-01-30T05:41:44.891Z,13.93
2023-01-30T05:44:13.394Z,13.43
2023-01-30T05:46:44.719Z,13.20
2023-01-30T05:49:13.198Z,13.73
2023-01-30T05:51:44.401Z,12.18
2023-01-30T05:54:12.797Z,13.02
2023-01-30T05:56:45.767Z,12.27
2023-01-30T05:59:15.341Z,12.65
2023-01-30T06:01:43.673Z,12.88
2023-01-30T06:04:12.083Z,12.45
2023-01-30T06:06:40.449Z,11.98
2023-01-30T06:09:11.401Z,11.07
2023-01-30T06:11:39.794Z,11.30
2023-01-30T06:14:09.764Z,11.00
2023-01-30T06:16:38.536Z,12.38
2023-01-30T06:19:06.905Z,11.48
2023-01-30T06:21:35.244Z,12.18
2023-01-30T06:24:03.627Z,11.05
2023-01-30T06:26:32.124Z,11.70
2023-01-30T06:29:00.522Z,12.40
2023-01-30T06:31:30.281Z,13.85
2023-01-30T06:33:58.680Z,11.93
2023-01-30T06:36:27.068Z,11.15
2023-01-30T06:38:55.379Z,10.88
2023-01-30T06:41:23.767Z,10.98
2023-01-30T06:43:52.137Z,10.27
2023-01-30T06:46:20.446Z,10.48
2023-01-30T06:48:50.237Z,11.63
2023-01-30T06:51:18.760Z,11.35
2023-01-30T06:53:47.442Z,12.10
2023-01-30T06:56:15.811Z,12.32
2023-01-30T06:58:44.412Z,12.40
2023-01-30T07:01:14.841Z,11.50
2023-01-30T07:03:43.259Z,11.38
2023-01-30T07:06:13.051Z,11.43
2023-01-30T07:08:41.945Z,11.65
2023-01-30T07:11:10.436Z,12.70
2023-01-30T07:13:38.924Z,10.25
2023-01-30T07:16:08.195Z,10.90
2023-01-30T07:18:36.701Z,10.90
2023-01-30T07:21:05.454Z,13.40
2023-01-30T07:23:37.450Z,11.05
2023-01-30T07:26:10.789Z,11.07
2023-01-30T07:28:40.941Z,10.77
2023-01-30T07:31:10.360Z,9.40
2023-01-30T07:33:39.393Z,12.13
2023-01-30T07:36:11.650Z,12.95
2023-01-30T07:38:41.721Z,12.18
2023-01-30T07:41:10.233Z,11.55
2023-01-30T07:43:42.542Z,12.55
2023-01-30T07:46:11.615Z,12.77
2023-01-30T07:48:40.008Z,12.93
2023-01-30T07:51:11.389Z,12.40
2023-01-30T07:53:41.904Z,13.65
2023-01-30T07:56:14.123Z,12.93
2023-01-30T07:58:44.989Z,13.05
2023-01-30T08:01:14.173Z,11.95
2023-01-30T08:03:43.925Z,12.05
2023-01-30T08:06:13.933Z,12.13
2023-01-30T08:08:44.452Z,10.55
2023-01-30T08:11:16.734Z,11.23
2023-01-30T08:13:45.486Z,10.85
2023-01-30T08:16:14.684Z,11.15
2023-01-30T08:18:44.168Z,10.77
2023-01-30T08:21:13.123Z,10.57
2023-01-30T08:23:43.412Z,9.80
2023-01-30T08:26:12.107Z,10.07
2023-01-30T08:28:41.651Z,10.20
2023-01-30T08:31:13.828Z,10.95
2023-01-30T08:33:43.183Z,11.70
2023-01-30T08:36:11.831Z,9.88
2023-01-30T08:38:40.574Z,11.55
2023-01-30T08:41:10.866Z,9.55
2023-01-30T08:43:40.104Z,10.55
2023-01-30T08:46:10.543Z,18.42
2023-01-30T08:48:49.624Z,12.02
2023-01-30T08:51:19.762Z,10.60
2023-01-30T08:53:52.613Z,10.02
2023-01-30T08:56:23.208Z,9.60
2023-01-30T08:58:54.135Z,10.57
2023-01-30T09:01:23.212Z,10.63
2023-01-30T09:03:54.395Z,10.60
2023-01-30T09:06:26.033Z,9.10
2023-01-30T09:08:55.073Z,9.93
2023-01-30T09:11:25.175Z,8.90
2023-01-30T09:13:58.040Z,8.18
2023-01-30T09:16:26.695Z,7.32
2023-01-30T09:18:55.752Z,6.65
2023-01-30T09:21:35.782Z,6.28
2023-01-30T09:24:06.959Z,5.50
2023-01-30T09:26:44.795Z,4.93
2023-01-30T09:29:14.219Z,4.80
2023-01-30T09:31:43.107Z,4.85
2023-01-30T09:34:14.232Z,4.32
2023-01-30T09:36:43.363Z,4.50
2023-01-30T09:39:13.772Z,4.10
2023-01-30T09:42:00.881Z,3.50
2023-01-30T09:44:49.811Z,3.30
2023-01-30T09:47:29.808Z,3.20
2023-01-30T09:50:15.219Z,3.28
2023-01-30T09:52:58.628Z,2.75
2023-01-30T09:55:30.259Z,3.30
2023-01-30T09:58:04.442Z,3.28
2023-01-30T10:00:36.784Z,3.53
2023-01-30T10:03:15.010Z,3.42
2023-01-30T10:05:48.229Z,3.03
2023-01-30T10:08:35.804Z,2.63
2023-01-30T10:11:15.700Z,2.38
2023-01-30T10:14:20.001Z,2.75
2023-01-30T10:17:01.605Z,2.45
2023-01-30T10:20:00.416Z,2.40
2023-01-30T10:22:43.083Z,4.28
2023-01-30T10:25:25.692Z,3.28
2023-01-30T10:28:00.488Z,2.88
2023-01-30T10:30:31.675Z,3.65
2023-01-30T10:33:05.652Z,7.20
2023-01-30T10:35:38.387Z,3.33
2023-01-30T10:38:19.205Z,2.55
2023-01-30T10:40:56.692Z,2.65
2023-01-30T10:43:30.321Z,3.42
2023-01-30T10:46:09.155Z,2.65
2023-01-30T10:48:54.033Z,3.10
2023-01-30T10:51:34.019Z,2.70
2023-01-30T10:54:10.935Z,2.30
2023-01-30T10:56:51.978Z,4.90
2023-01-30T10:59:29.551Z,3.20
2023-01-30T11:02:24.795Z,3.30
2023-01-30T11:04:59.517Z,3.83
2023-01-30T11:10:00.691Z,2.55
2023-01-30T11:12:30.048Z,4.07
2023-01-30T11:15:00.560Z,3.53
2023-01-30T11:17:37.117Z,3.28
2023-01-30T11:20:15.190Z,5.95
2023-01-30T11:22:52.069Z,2.75
2023-01-30T11:25:24.253Z,4.53
2023-01-30T11:27:58.149Z,4.25
2023-01-30T11:30:34.900Z,2.42
2023-01-30T11:33:13.934Z,3.95
2023-01-30T11:35:53.240Z,6.28
2023-01-30T11:38:28.221Z,2.70
2023-01-30T11:41:16.259Z,2.97
2023-01-30T11:43:45.288Z,3.47
2023-01-30T11:46:19.611Z,5.43
2023-01-30T11:49:04.312Z,5.85
2023-01-30T11:51:49.236Z,6.55
2023-01-30T11:54:22.945Z,2.30
2023-01-30T11:57:00.250Z,3.00
2023-01-30T11:59:32.455Z,2.28
2023-01-30T12:02:09.759Z,2.35
2023-01-30T12:04:45.834Z,2.45
2023-01-30T12:07:23.047Z,2.30
2023-01-30T12:09:54.619Z,1.90
2023-01-30T12:12:35.036Z,2.38
2023-01-30T12:15:27.233Z,2.45
2023-01-30T12:18:05.059Z,1.83
2023-01-30T12:20:49.537Z,2.60
2023-01-30T12:23:25.389Z,2.17
2023-01-30T12:26:04.709Z,1.90
2023-01-30T12:28:42.957Z,2.00
2023-01-30T12:31:30.616Z,2.30
2023-01-30T12:34:05.668Z,2.30
2023-01-30T12:36:48.941Z,1.77
2023-01-30T12:39:37.809Z,2.00
2023-01-30T12:42:48.074Z,2.35
2023-01-30T12:45:24.944Z,2.08
2023-01-30T12:48:24.526Z,2.20
2023-01-30T12:51:10.171Z,2.00
2023-01-30T12:53:59.235Z,1.90
2023-01-30T12:57:08.877Z,2.50
2023-01-30T12:59:50.761Z,2.08
2023-01-30T13:02:39.247Z,2.05
2023-01-30T13:05:28.306Z,1.95
2023-01-30T13:08:11.884Z,2.22
2023-01-30T13:10:53.278Z,1.80
2023-01-30T13:13:30.957Z,2.05
2023-01-30T13:16:11.696Z,1.83
2023-01-30T13:18:54.218Z,1.90
2023-01-30T13:21:31.447Z,2.33
2023-01-30T13:24:25.386Z,2.20
2023-01-30T13:27:04.042Z,1.58
2023-01-30T13:29:39.669Z,2.25
2023-01-30T13:32:24.104Z,2.80
2023-01-30T13:35:03.596Z,2.83
2023-01-30T13:37:35.848Z,1.90
2023-01-30T13:40:20.488Z,2.00
2023-01-30T13:43:07.835Z,2.03
2023-01-30T13:45:45.543Z,2.22
2023-01-30T13:51:18.690Z,2.50
2023-01-30T13:53:56.881Z,2.50
2023-01-30T13:56:43.105Z,2.60
2023-01-30T13:59:24.357Z,2.67
2023-01-30T14:02:25.850Z,2.80
2023-01-30T14:05:00.459Z,2.28
2023-01-30T14:07:35.370Z,2.25
2023-01-30T14:10:23.819Z,2.13
2023-01-30T14:13:07.536Z,2.15
2023-01-30T14:16:03.545Z,3.03
2023-01-30T14:18:39.003Z,4.70
2023-01-30T14:21:21.698Z,2.38
2023-01-30T14:23:57.767Z,2.50
2023-01-30T14:27:02.837Z,2.38
2023-01-30T14:32:56.129Z,2.85
2023-01-30T14:35:29.790Z,2.50
2023-01-30T14:38:17.388Z,2.78
2023-01-30T14:41:25.256Z,2.45
2023-01-30T14:43:56.235Z,2.20
2023-01-30T14:46:55.809Z,3.28
2023-01-30T14:49:36.955Z,3.92
2023-01-30T14:52:33.895Z,3.38
2023-01-30T14:55:08.917Z,2.63
2023-01-30T14:57:38.427Z,2.20
2023-01-30T15:00:19.993Z,2.50
2023-01-30T15:02:57.666Z,3.47
2023-01-30T15:05:34.375Z,2.67
2023-01-30T15:08:28.576Z,2.53
2023-01-30T15:11:12.859Z,2.53
2023-01-30T15:13:55.312Z,3.22
2023-01-30T15:16:46.167Z,2.85
2023-01-30T15:19:38.915Z,2.35
2023-01-30T15:22:25.127Z,2.50
2023-01-30T15:25:32.601Z,3.00
2023-01-30T15:28:19.184Z,2.20
2023-01-30T15:31:01.010Z,2.45
2023-01-30T15:33:33.272Z,2.22
2023-01-30T15:36:20.131Z,2.80
2023-01-30T15:38:59.096Z,2.38
2023-01-30T15:41:44.281Z,2.30
2023-01-30T15:44:46.667Z,2.38
2023-01-30T15:47:46.971Z,2.80
2023-01-30T15:50:23.465Z,2.45
2023-01-30T15:52:57.036Z,2.20
2023-01-30T15:55:40.943Z,2.58
2023-01-30T15:58:24.675Z,2.40
2023-01-30T16:00:58.127Z,2.42
2023-01-30T16:03:33.688Z,1.87
2023-01-30T16:06:10.329Z,2.40
2023-01-30T16:08:47.226Z,1.90
2023-01-30T16:11:40.436Z,2.70
2023-01-30T16:14:15.480Z,2.72
2023-01-30T16:16:50.855Z,2.58
2023-01-30T16:19:28.975Z,2.30
2023-01-30T16:22:02.092Z,2.60
2023-01-30T16:24:37.114Z,2.70
2023-01-30T16:27:09.744Z,2.08
2023-01-30T16:29:53.440Z,2.42
2023-01-30T16:32:29.828Z,2.20
2023-01-30T16:35:29.262Z,1.83
2023-01-30T16:38:32.397Z,1.73
2023-01-30T16:41:06.186Z,1.70
2023-01-30T16:43:36.566Z,2.47
2023-01-30T16:46:39.495Z,2.45
2023-01-30T16:49:18.458Z,2.10
2023-01-30T16:51:48.841Z,2.17
2023-01-30T16:54:23.116Z,2.13
2023-01-30T16:56:56.816Z,2.10
2023-01-30T16:59:32.304Z,3.37
2023-01-30T17:02:04.955Z,2.40
2023-01-30T17:04:55.295Z,1.92
2023-01-30T17:07:36.553Z,2.50
2023-01-30T17:10:32.244Z,3.78
2023-01-30T17:13:04.655Z,17.00
2023-01-30T17:15:39.509Z,6.30
2023-01-30T17:18:13.196Z,3.42
2023-01-30T17:20:51.280Z,4.65
2023-01-30T17:23:22.311Z,4.88
2023-01-30T17:25:56.906Z,3.20
2023-01-30T17:28:29.181Z,3.53
2023-01-30T17:31:14.787Z,3.17
2023-01-30T17:33:53.492Z,2.88
2023-01-30T17:36:36.073Z,2.92
2023-01-30T17:39:18.837Z,3.40
2023-01-30T17:41:55.197Z,2.88
2023-01-30T17:44:28.410Z,3.03
2023-01-30T17:47:06.546Z,2.95
2023-01-30T17:49:38.347Z,3.10
2023-01-30T17:52:16.362Z,3.10
2023-01-30T17:54:51.591Z,2.50
2023-01-30T17:57:27.703Z,2.38
2023-01-30T17:59:56.831Z,2.95
2023-01-30T18:02:28.400Z,2.63
2023-01-30T18:05:01.266Z,2.40
2023-01-30T18:07:39.315Z,2.30
2023-01-30T18:10:18.466Z,3.35
2023-01-30T18:12:53.566Z,3.10
2023-01-30T18:15:31.631Z,2.75
2023-01-30T18:18:17.878Z,2.78
2023-01-30T18:20:55.391Z,2.83
2023-01-30T18:23:56.614Z,2.58
2023-01-30T18:26:30.851Z,3.00
2023-01-30T18:29:07.116Z,3.30
2023-01-30T18:31:46.630Z,3.00
2023-01-30T18:34:21.908Z,2.70
2023-01-30T18:37:00.251Z,2.30
2023-01-30T18:39:48.461Z,2.92
2023-01-30T18:42:27.020Z,2.95
2023-01-30T18:45:13.748Z,3.28
2023-01-30T18:47:44.811Z,3.00
2023-01-30T18:50:20.891Z,2.83
2023-01-30T18:52:56.374Z,2.80
2023-01-30T18:55:30.941Z,2.78
2023-01-30T19:00:34.014Z,2.85
2023-01-30T19:03:05.418Z,3.20
2023-01-30T19:05:43.357Z,2.65
2023-01-30T19:08:12.662Z,2.50
2023-01-30T19:10:47.264Z,2.83
2023-01-30T19:13:36.847Z,4.13
2023-01-30T19:16:10.899Z,2.95
2023-01-30T19:18:40.731Z,2.70
2023-01-30T19:21:16.324Z,3.13
2023-01-30T19:23:47.499Z,2.65
2023-01-30T19:26:23.481Z,1.95
2023-01-30T19:28:56.660Z,2.67
2023-01-30T19:31:26.714Z,2.28
2023-01-30T19:34:01.021Z,2.10
2023-01-30T19:36:38.818Z,3.63
2023-01-30T19:39:08.028Z,2.40
2023-01-30T19:41:38.973Z,2.92
2023-01-30T19:44:09.859Z,2.88
2023-01-30T19:46:46.365Z,3.50
2023-01-30T19:49:16.593Z,3.28
2023-01-30T19:51:46.844Z,2.85
2023-01-30T19:54:28.914Z,2.45
2023-01-30T19:57:00.197Z,2.53
2023-01-30T19:59:30.286Z,2.50
2023-01-30T20:02:00.180Z,2.22
2023-01-30T20:04:29.493Z,2.53
2023-01-30T20:07:02.068Z,2.78
2023-01-30T20:09:36.591Z,2.63
2023-01-30T20:12:11.143Z,2.47
2023-01-30T20:14:42.449Z,2.03
2023-01-30T20:17:16.582Z,2.85
2023-01-30T20:19:52.493Z,2.45
2023-01-30T20:22:29.010Z,2.40
2023-01-30T20:25:01.043Z,2.00
2023-01-30T20:27:35.596Z,2.00
2023-01-30T20:30:06.157Z,2.70
2023-01-30T20:32:41.140Z,2.50
2023-01-30T20:35:14.200Z,2.47
2023-01-30T20:37:44.925Z,2.22
2023-01-30T20:40:15.768Z,2.00
2023-01-30T20:42:46.598Z,1.92
2023-01-30T20:45:16.689Z,1.92
2023-01-30T20:47:52.007Z,2.10
2023-01-30T20:50:22.005Z,2.00
2023-01-30T20:52:52.801Z,2.17
2023-01-30T20:55:22.831Z,2.20
2023-01-30T20:57:54.081Z,2.13
2023-01-30T21:00:22.958Z,1.98
2023-01-30T21:02:59.369Z,1.90
2023-01-30T21:05:35.719Z,2.03
2023-01-30T21:08:13.135Z,2.15
2023-01-30T21:10:47.213Z,2.17
2023-01-30T21:13:17.856Z,2.50
2023-01-30T21:15:47.093Z,1.90
2023-01-30T21:18:17.969Z,1.95
2023-01-30T21:20:54.112Z,2.22
2023-01-30T21:23:25.000Z,2.35
2023-01-30T21:25:55.015Z,2.50
2023-01-30T21:28:26.355Z,2.33
2023-01-30T21:30:56.129Z,2.13
2023-01-30T21:33:25.871Z,2.10
2023-01-30T21:35:55.834Z,1.70
2023-01-30T21:38:42.798Z,1.60
2023-01-30T21:41:36.625Z,1.58
2023-01-30T21:44:09.062Z,1.65
2023-01-30T21:46:40.467Z,1.65
2023-01-30T21:49:12.747Z,2.42
2023-01-30T21:51:43.800Z,2.10
2023-01-30T21:54:14.651Z,2.03
2023-01-30T21:56:44.354Z,2.55
2023-01-30T21:59:19.350Z,2.20
2023-01-30T22:01:54.109Z,1.98
2023-01-30T22:04:27.104Z,2.05
2023-01-30T22:07:00.182Z,2.30
2023-01-30T22:09:30.539Z,2.15
2023-01-30T22:12:05.847Z,2.30
2023-01-30T22:14:37.580Z,2.75
2023-01-30T22:17:07.559Z,1.88
2023-01-30T22:19:40.779Z,1.95
2023-01-30T22:22:13.690Z,1.92
2023-01-30T22:24:43.389Z,2.10
2023-01-30T22:27:13.932Z,3.00
2023-01-30T22:29:48.059Z,1.63
2023-01-30T22:32:22.277Z,1.80
2023-01-30T22:34:55.551Z,1.85
2023-01-30T22:37:28.666Z,1.67
2023-01-30T22:40:01.619Z,1.50
2023-01-30T22:42:31.513Z,1.60
2023-01-30T22:45:03.258Z,1.70
2023-01-30T22:47:37.087Z,1.80
2023-01-30T22:50:08.679Z,2.15
2023-01-30T22:52:46.935Z,1.50
2023-01-30T22:55:18.062Z,1.80
2023-01-30T22:57:51.600Z,1.88
2023-01-30T23:00:34.033Z,1.60
2023-01-30T23:03:04.427Z,1.85
2023-01-30T23:05:34.306Z,1.73
2023-01-30T23:08:03.466Z,1.65
2023-01-30T23:10:33.711Z,2.80
2023-01-30T23:13:09.887Z,2.72
2023-01-30T23:15:43.959Z,2.30
2023-01-30T23:18:37.998Z,1.80
2023-01-30T23:21:12.118Z,1.92
2023-01-30T23:23:41.879Z,1.75
2023-01-30T23:26:41.218Z,2.75
2023-01-30T23:29:21.040Z,2.28
2023-01-30T23:31:51.152Z,2.63
2023-01-30T23:34:23.018Z,2.65
2023-01-30T23:36:55.867Z,2.20
2023-01-30T23:39:26.545Z,2.20
2023-01-30T23:41:59.828Z,2.05
2023-01-30T23:44:36.334Z,2.45
2023-01-30T23:47:09.840Z,2.00
2023-01-30T23:49:38.715Z,2.42
2023-01-30T23:52:10.932Z,1.80
2023-01-30T23:54:40.824Z,2.55
2023-01-30T23:57:13.787Z,2.50
2023-01-30T23:59:46.923Z,2.00
